Terminal Aerodrome Forecast
Issued by NWS Albany, NY

Home | Current Version | Previous Version | Text Only | Print | Product List | Glossary On
Versions: 1 2 3 4 5 6 7 8 9 10 11 12 13 14 15 16 17 18
000
FTUS41 KALY 022335
TAFALB
TAF
KALB 022335Z 0300/0324 19008KT P6SM FEW080
     FM031400 19010G20KT P6SM SCT050 SCT250
     FM031900 19012G22KT P6SM VCSH BKN050=

USA.gov is the U.S. government's official web portal to all federal, state and local government web resources and services.